sensor_id;sensor_type;location;lat;lon;timestamp;pressure;altitude;pressure_sealevel;temperature;humidity
49827;BME280;35715;51.570;6.036;2023-04-21T00:01:36;101392.06;;;7.84;100.00
49827;BME280;35715;51.570;6.036;2023-04-21T00:04:01;101400.03;;;7.87;100.00
49827;BME280;35715;51.570;6.036;2023-04-21T00:06:26;101394.63;;;7.84;100.00
49827;BME280;35715;51.570;6.036;2023-04-21T00:09:08;101383.19;;;7.80;100.00
49827;BME280;35715;51.570;6.036;2023-04-21T00:11:35;101392.47;;;7.78;100.00
49827;BME280;35715;51.570;6.036;2023-04-21T00:14:00;101368.28;;;7.76;100.00
49827;BME280;35715;51.570;6.036;2023-04-21T00:16:25;101356.63;;;7.80;100.00
49827;BME280;35715;51.570;6.036;2023-04-21T00:18:51;101358.66;;;7.84;100.00
49827;BME280;35715;51.570;6.036;2023-04-21T00:21:16;101361.81;;;7.90;100.00
49827;BME280;35715;51.570;6.036;2023-04-21T00:23:42;101359.72;;;7.86;100.00
49827;BME280;35715;51.570;6.036;2023-04-21T00:26:07;101372.06;;;7.90;100.00
49827;BME280;35715;51.570;6.036;2023-04-21T00:28:32;101371.56;;;7.94;100.00
49827;BME280;35715;51.570;6.036;2023-04-21T00:30:58;101374.34;;;7.87;100.00
49827;BME280;35715;51.570;6.036;2023-04-21T00:33:23;101383.56;;;7.75;100.00
49827;BME280;35715;51.570;6.036;2023-04-21T00:35:48;101378.94;;;7.71;100.00
49827;BME280;35715;51.570;6.036;2023-04-21T00:38:14;101377.63;;;7.66;100.00
49827;BME280;35715;51.570;6.036;2023-04-21T00:40:39;101374.91;;;7.64;100.00
49827;BME280;35715;51.570;6.036;2023-04-21T00:43:05;101371.84;;;7.68;100.00
49827;BME280;35715;51.570;6.036;2023-04-21T00:45:31;101371.38;;;7.72;100.00
49827;BME280;35715;51.570;6.036;2023-04-21T00:47:56;101362.75;;;7.72;100.00
49827;BME280;35715;51.570;6.036;2023-04-21T00:50:22;101363.28;;;7.68;100.00
49827;BME280;35715;51.570;6.036;2023-04-21T00:52:47;101354.78;;;7.69;100.00
49827;BME280;35715;51.570;6.036;2023-04-21T00:55:13;101348.38;;;7.74;100.00
49827;BME280;35715;51.570;6.036;2023-04-21T00:57:51;101359.16;;;7.70;100.00
49827;BME280;35715;51.570;6.036;2023-04-21T01:00:17;101345.94;;;7.75;100.00
49827;BME280;35715;51.570;6.036;2023-04-21T01:02:43;101332.72;;;7.81;100.00
49827;BME280;35715;51.570;6.036;2023-04-21T01:05:09;101334.44;;;7.91;100.00
49827;BME280;35715;51.570;6.036;2023-04-21T01:07:35;101334.94;;;7.87;100.00
49827;BME280;35715;51.570;6.036;2023-04-21T01:10:01;101330.53;;;7.86;100.00
49827;BME280;35715;51.570;6.036;2023-04-21T01:12:26;101325.31;;;7.94;100.00
49827;BME280;35715;51.570;6.036;2023-04-21T01:14:51;101331.63;;;7.98;100.00
49827;BME280;35715;51.570;6.036;2023-04-21T01:17:16;101328.91;;;8.07;100.00
49827;BME280;35715;51.570;6.036;2023-04-21T01:19:44;101335.59;;;8.05;100.00
49827;BME280;35715;51.570;6.036;2023-04-21T01:22:10;101342.53;;;7.95;100.00
49827;BME280;35715;51.570;6.036;2023-04-21T01:24:37;101347.53;;;7.94;100.00
49827;BME280;35715;51.570;6.036;2023-04-21T01:27:02;101337.38;;;7.95;100.00
49827;BME280;35715;51.570;6.036;2023-04-21T01:29:32;101346.66;;;8.04;100.00
49827;BME280;35715;51.570;6.036;2023-04-21T01:32:02;101339.47;;;7.99;100.00
49827;BME280;35715;51.570;6.036;2023-04-21T01:34:27;101336.50;;;7.95;100.00
49827;BME280;35715;51.570;6.036;2023-04-21T01:36:52;101324.31;;;8.03;100.00
49827;BME280;35715;51.570;6.036;2023-04-21T01:42:03;101334.06;;;7.96;100.00
49827;BME280;35715;51.570;6.036;2023-04-21T01:44:28;101310.16;;;7.97;100.00
49827;BME280;35715;51.570;6.036;2023-04-21T01:46:54;101319.63;;;7.88;100.00
49827;BME280;35715;51.570;6.036;2023-04-21T01:49:29;101307.28;;;7.84;100.00
49827;BME280;35715;51.570;6.036;2023-04-21T01:51:55;101310.66;;;7.83;100.00
49827;BME280;35715;51.570;6.036;2023-04-21T01:54:20;101302.81;;;7.81;100.00
49827;BME280;35715;51.570;6.036;2023-04-21T01:56:45;101308.97;;;7.84;100.00
49827;BME280;35715;51.570;6.036;2023-04-21T01:59:11;101308.31;;;7.76;100.00
49827;BME280;35715;51.570;6.036;2023-04-21T02:01:37;101300.75;;;7.77;100.00
49827;BME280;35715;51.570;6.036;2023-04-21T02:04:02;101301.50;;;7.76;100.00
49827;BME280;35715;51.570;6.036;2023-04-21T02:06:28;101294.72;;;7.77;100.00
49827;BME280;35715;51.570;6.036;2023-04-21T02:08:55;101289.53;;;7.67;100.00
49827;BME280;35715;51.570;6.036;2023-04-21T02:11:20;101294.69;;;7.67;100.00
49827;BME280;35715;51.570;6.036;2023-04-21T02:13:46;101295.69;;;7.69;100.00
49827;BME280;35715;51.570;6.036;2023-04-21T02:16:11;101298.94;;;7.66;100.00
49827;BME280;35715;51.570;6.036;2023-04-21T02:18:45;101298.41;;;7.70;100.00
49827;BME280;35715;51.570;6.036;2023-04-21T02:21:10;101295.22;;;7.73;100.00
49827;BME280;35715;51.570;6.036;2023-04-21T02:23:35;101288.13;;;7.70;100.00
49827;BME280;35715;51.570;6.036;2023-04-21T02:26:01;101281.22;;;7.69;100.00
49827;BME280;35715;51.570;6.036;2023-04-21T02:28:39;101277.88;;;7.80;100.00
49827;BME280;35715;51.570;6.036;2023-04-21T02:31:04;101272.63;;;7.79;100.00
49827;BME280;35715;51.570;6.036;2023-04-21T02:33:29;101276.59;;;7.75;100.00
49827;BME280;35715;51.570;6.036;2023-04-21T02:35:55;101269.91;;;7.77;100.00
49827;BME280;35715;51.570;6.036;2023-04-21T02:38:24;101270.81;;;7.78;100.00
49827;BME280;35715;51.570;6.036;2023-04-21T02:40:49;101267.59;;;7.80;100.00
49827;BME280;35715;51.570;6.036;2023-04-21T02:43:15;101277.75;;;7.79;100.00
49827;BME280;35715;51.570;6.036;2023-04-21T02:45:40;101275.56;;;7.84;100.00
49827;BME280;35715;51.570;6.036;2023-04-21T02:48:12;101276.06;;;7.79;100.00
49827;BME280;35715;51.570;6.036;2023-04-21T02:50:38;101271.34;;;7.74;100.00
49827;BME280;35715;51.570;6.036;2023-04-21T02:53:04;101275.06;;;7.77;100.00
49827;BME280;35715;51.570;6.036;2023-04-21T02:55:29;101275.31;;;7.80;100.00
49827;BME280;35715;51.570;6.036;2023-04-21T02:58:06;101274.03;;;7.75;100.00
49827;BME280;35715;51.570;6.036;2023-04-21T03:00:31;101269.53;;;7.73;100.00
49827;BME280;35715;51.570;6.036;2023-04-21T03:02:56;101268.22;;;7.78;100.00
49827;BME280;35715;51.570;6.036;2023-04-21T03:05:21;101267.88;;;7.84;100.00
49827;BME280;35715;51.570;6.036;2023-04-21T03:08:02;101263.22;;;7.79;100.00
49827;BME280;35715;51.570;6.036;2023-04-21T03:10:27;101266.47;;;7.77;100.00
49827;BME280;35715;51.570;6.036;2023-04-21T03:12:52;101261.31;;;7.77;100.00
49827;BME280;35715;51.570;6.036;2023-04-21T03:15:18;101257.59;;;7.84;100.00
49827;BME280;35715;51.570;6.036;2023-04-21T03:17:43;101261.31;;;7.87;100.00
49827;BME280;35715;51.570;6.036;2023-04-21T03:20:08;101260.56;;;7.88;100.00
49827;BME280;35715;51.570;6.036;2023-04-21T03:22:34;101258.09;;;7.90;100.00
49827;BME280;35715;51.570;6.036;2023-04-21T03:25:00;101251.97;;;7.88;100.00
49827;BME280;35715;51.570;6.036;2023-04-21T03:27:25;101258.25;;;7.91;100.00
49827;BME280;35715;51.570;6.036;2023-04-21T03:29:51;101260.56;;;7.88;100.00
49827;BME280;35715;51.570;6.036;2023-04-21T03:32:16;101261.44;;;7.89;100.00
49827;BME280;35715;51.570;6.036;2023-04-21T03:34:41;101257.97;;;7.88;100.00
49827;BME280;35715;51.570;6.036;2023-04-21T03:37:06;101249.50;;;7.89;100.00
49827;BME280;35715;51.570;6.036;2023-04-21T03:39:38;101254.78;;;7.91;100.00
49827;BME280;35715;51.570;6.036;2023-04-21T03:42:03;101262.09;;;7.86;100.00
49827;BME280;35715;51.570;6.036;2023-04-21T03:44:29;101260.78;;;7.81;100.00
49827;BME280;35715;51.570;6.036;2023-04-21T03:46:54;101255.38;;;7.78;100.00
49827;BME280;35715;51.570;6.036;2023-04-21T03:49:27;101250.50;;;7.81;100.00
49827;BME280;35715;51.570;6.036;2023-04-21T03:51:53;101250.78;;;7.74;100.00
49827;BME280;35715;51.570;6.036;2023-04-21T03:54:18;101252.03;;;7.69;100.00
49827;BME280;35715;51.570;6.036;2023-04-21T03:56:43;101252.03;;;7.69;100.00
49827;BME280;35715;51.570;6.036;2023-04-21T03:59:09;101247.03;;;7.70;100.00
49827;BME280;35715;51.570;6.036;2023-04-21T04:01:35;101250.91;;;7.75;100.00
49827;BME280;35715;51.570;6.036;2023-04-21T04:04:00;101254.59;;;7.69;100.00
49827;BME280;35715;51.570;6.036;2023-04-21T04:06:25;101254.88;;;7.72;100.00
49827;BME280;35715;51.570;6.036;2023-04-21T04:08:51;101251.91;;;7.67;100.00
49827;BME280;35715;51.570;6.036;2023-04-21T04:11:17;101258.59;;;7.65;100.00
49827;BME280;35715;51.570;6.036;2023-04-21T04:13:42;101262.06;;;7.66;100.00
49827;BME280;35715;51.570;6.036;2023-04-21T04:16:07;101260.28;;;7.64;100.00
49827;BME280;35715;51.570;6.036;2023-04-21T04:18:37;101252.41;;;7.63;100.00
49827;BME280;35715;51.570;6.036;2023-04-21T04:21:06;101257.69;;;7.64;100.00
49827;BME280;35715;51.570;6.036;2023-04-21T04:23:32;101254.97;;;7.63;100.00
49827;BME280;35715;51.570;6.036;2023-04-21T04:25:57;101251.66;;;7.64;100.00
49827;BME280;35715;51.570;6.036;2023-04-21T04:28:25;101246.50;;;7.64;100.00
49827;BME280;35715;51.570;6.036;2023-04-21T04:30:50;101255.66;;;7.71;100.00
49827;BME280;35715;51.570;6.036;2023-04-21T04:33:16;101246.91;;;7.69;100.00
49827;BME280;35715;51.570;6.036;2023-04-21T04:35:42;101248.22;;;7.74;100.00
49827;BME280;35715;51.570;6.036;2023-04-21T04:38:14;101251.53;;;7.73;100.00
49827;BME280;35715;51.570;6.036;2023-04-21T04:40:39;101256.94;;;7.76;100.00
49827;BME280;35715;51.570;6.036;2023-04-21T04:43:06;101248.22;;;7.74;100.00
49827;BME280;35715;51.570;6.036;2023-04-21T04:45:32;101249.09;;;7.74;100.00
49827;BME280;35715;51.570;6.036;2023-04-21T04:50:42;101256.44;;;7.80;100.00
49827;BME280;35715;51.570;6.036;2023-04-21T04:53:07;101261.44;;;7.78;100.00
49827;BME280;35715;51.570;6.036;2023-04-21T04:55:33;101260.28;;;7.75;100.00
49827;BME280;35715;51.570;6.036;2023-04-21T04:58:02;101259.38;;;7.74;100.00
49827;BME280;35715;51.570;6.036;2023-04-21T05:00:27;101260.41;;;7.76;100.00
49827;BME280;35715;51.570;6.036;2023-04-21T05:02:53;101262.84;;;7.75;100.00
49827;BME280;35715;51.570;6.036;2023-04-21T05:05:18;101266.06;;;7.72;100.00
49827;BME280;35715;51.570;6.036;2023-04-21T05:08:00;101262.56;;;7.72;100.00
49827;BME280;35715;51.570;6.036;2023-04-21T05:10:25;101273.78;;;7.72;100.00
49827;BME280;35715;51.570;6.036;2023-04-21T05:12:51;101266.56;;;7.68;100.00
49827;BME280;35715;51.570;6.036;2023-04-21T05:15:16;101274.91;;;7.76;100.00
49827;BME280;35715;51.570;6.036;2023-04-21T05:17:42;101270.41;;;7.73;100.00
49827;BME280;35715;51.570;6.036;2023-04-21T05:20:07;101273.09;;;7.75;100.00
49827;BME280;35715;51.570;6.036;2023-04-21T05:22:36;101275.41;;;7.72;100.00
49827;BME280;35715;51.570;6.036;2023-04-21T05:25:02;101279.94;;;7.74;100.00
49827;BME280;35715;51.570;6.036;2023-04-21T05:27:27;101277.72;;;7.69;100.00
49827;BME280;35715;51.570;6.036;2023-04-21T05:32:30;101284.31;;;7.75;100.00
49827;BME280;35715;51.570;6.036;2023-04-21T05:34:55;101284.44;;;7.77;100.00
49827;BME280;35715;51.570;6.036;2023-04-21T05:37:20;101281.34;;;7.81;100.00
49827;BME280;35715;51.570;6.036;2023-04-21T05:39:50;101287.00;;;7.87;100.00
49827;BME280;35715;51.570;6.036;2023-04-21T05:42:15;101284.59;;;7.99;100.00
49827;BME280;35715;51.570;6.036;2023-04-21T05:44:42;101287.16;;;8.09;100.00
49827;BME280;35715;51.570;6.036;2023-04-21T05:47:07;101287.31;;;8.21;100.00
49827;BME280;35715;51.570;6.036;2023-04-21T05:52:04;101291.41;;;8.40;100.00
49827;BME280;35715;51.570;6.036;2023-04-21T05:54:29;101280.91;;;8.47;100.00
49827;BME280;35715;51.570;6.036;2023-04-21T05:56:54;101279.97;;;8.57;100.00
49827;BME280;35715;51.570;6.036;2023-04-21T05:59:24;101286.19;;;8.59;100.00
49827;BME280;35715;51.570;6.036;2023-04-21T06:01:50;101277.53;;;8.68;100.00
49827;BME280;35715;51.570;6.036;2023-04-21T06:04:15;101274.56;;;8.64;100.00
49827;BME280;35715;51.570;6.036;2023-04-21T06:06:41;101276.63;;;8.68;100.00
49827;BME280;35715;51.570;6.036;2023-04-21T06:09:07;101283.97;;;8.74;100.00
49827;BME280;35715;51.570;6.036;2023-04-21T06:11:32;101281.41;;;8.74;100.00
49827;BME280;35715;51.570;6.036;2023-04-21T06:13:57;101270.06;;;8.72;100.00
49827;BME280;35715;51.570;6.036;2023-04-21T06:16:23;101284.09;;;8.75;100.00
49827;BME280;35715;51.570;6.036;2023-04-21T06:18:53;101277.25;;;8.76;100.00
49827;BME280;35715;51.570;6.036;2023-04-21T06:21:18;101277.75;;;8.82;100.00
49827;BME280;35715;51.570;6.036;2023-04-21T06:23:43;101276.63;;;8.78;100.00
49827;BME280;35715;51.570;6.036;2023-04-21T06:26:08;101278.91;;;8.85;100.00
49827;BME280;35715;51.570;6.036;2023-04-21T06:28:38;101278.34;;;9.00;100.00
49827;BME280;35715;51.570;6.036;2023-04-21T06:31:03;101281.53;;;9.08;100.00
49827;BME280;35715;51.570;6.036;2023-04-21T06:33:29;101270.38;;;9.07;100.00
49827;BME280;35715;51.570;6.036;2023-04-21T06:35:54;101283.84;;;9.15;100.00
49827;BME280;35715;51.570;6.036;2023-04-21T06:38:21;101275.53;;;9.29;100.00
49827;BME280;35715;51.570;6.036;2023-04-21T06:40:46;101277.50;;;9.54;100.00
49827;BME280;35715;51.570;6.036;2023-04-21T06:43:11;101275.50;;;9.84;100.00
49827;BME280;35715;51.570;6.036;2023-04-21T06:45:36;101282.56;;;10.42;100.00
49827;BME280;35715;51.570;6.036;2023-04-21T06:48:03;101274.81;;;10.42;100.00
49827;BME280;35715;51.570;6.036;2023-04-21T06:50:28;101275.78;;;10.78;100.00
49827;BME280;35715;51.570;6.036;2023-04-21T06:52:53;101290.09;;;10.75;100.00
49827;BME280;35715;51.570;6.036;2023-04-21T06:55:18;101296.03;;;10.50;100.00
49827;BME280;35715;51.570;6.036;2023-04-21T06:57:46;101284.03;;;10.51;99.08
49827;BME280;35715;51.570;6.036;2023-04-21T07:00:11;101284.72;;;10.83;100.00
49827;BME280;35715;51.570;6.036;2023-04-21T07:02:36;101275.63;;;11.12;96.41
49827;BME280;35715;51.570;6.036;2023-04-21T07:05:02;101287.16;;;11.41;95.61
49827;BME280;35715;51.570;6.036;2023-04-21T07:07:27;101275.72;;;11.75;93.69
49827;BME280;35715;51.570;6.036;2023-04-21T07:09:52;101283.88;;;11.56;93.23
49827;BME280;35715;51.570;6.036;2023-04-21T07:12:18;101290.59;;;11.53;94.57
49827;BME280;35715;51.570;6.036;2023-04-21T07:14:43;101273.56;;;12.18;92.53
49827;BME280;35715;51.570;6.036;2023-04-21T07:17:08;101271.34;;;12.49;86.87
49827;BME280;35715;51.570;6.036;2023-04-21T07:19:35;101264.84;;;12.42;84.27
49827;BME280;35715;51.570;6.036;2023-04-21T07:22:01;101281.31;;;12.83;85.21
49827;BME280;35715;51.570;6.036;2023-04-21T07:24:28;101259.00;;;12.99;85.38
49827;BME280;35715;51.570;6.036;2023-04-21T07:26:53;101253.22;;;13.16;81.22
49827;BME280;35715;51.570;6.036;2023-04-21T07:32:04;101250.13;;;13.22;79.98
49827;BME280;35715;51.570;6.036;2023-04-21T07:34:29;101254.09;;;13.30;79.13
49827;BME280;35715;51.570;6.036;2023-04-21T07:36:55;101265.84;;;13.52;78.70
49827;BME280;35715;51.570;6.036;2023-04-21T07:39:21;101270.09;;;13.93;77.00
49827;BME280;35715;51.570;6.036;2023-04-21T07:41:46;101265.84;;;13.80;78.18
49827;BME280;35715;51.570;6.036;2023-04-21T07:44:12;101266.59;;;13.92;76.24
49827;BME280;35715;51.570;6.036;2023-04-21T07:46:37;101271.22;;;13.83;75.12
49827;BME280;35715;51.570;6.036;2023-04-21T07:49:04;101266.06;;;13.28;76.48
49827;BME280;35715;51.570;6.036;2023-04-21T07:51:29;101266.00;;;13.00;78.63
49827;BME280;35715;51.570;6.036;2023-04-21T07:53:55;101274.16;;;12.92;81.09
49827;BME280;35715;51.570;6.036;2023-04-21T07:56:21;101271.88;;;13.37;79.22
49827;BME280;35715;51.570;6.036;2023-04-21T07:58:48;101269.84;;;12.53;80.67
49827;BME280;35715;51.570;6.036;2023-04-21T08:01:13;101273.69;;;12.33;82.02
49827;BME280;35715;51.570;6.036;2023-04-21T08:03:39;101268.63;;;12.09;84.76
49827;BME280;35715;51.570;6.036;2023-04-21T08:06:04;101271.47;;;12.25;86.56
49827;BME280;35715;51.570;6.036;2023-04-21T08:08:34;101271.75;;;12.82;84.20
49827;BME280;35715;51.570;6.036;2023-04-21T08:11:00;101271.34;;;12.76;80.25
49827;BME280;35715;51.570;6.036;2023-04-21T08:13:25;101265.56;;;13.34;78.32
49827;BME280;35715;51.570;6.036;2023-04-21T08:15:51;101259.69;;;13.23;79.70
49827;BME280;35715;51.570;6.036;2023-04-21T08:18:26;101261.97;;;13.31;77.72
49827;BME280;35715;51.570;6.036;2023-04-21T08:20:51;101250.81;;;13.32;76.53
49827;BME280;35715;51.570;6.036;2023-04-21T08:23:16;101246.91;;;13.26;78.04
49827;BME280;35715;51.570;6.036;2023-04-21T08:25:42;101250.28;;;13.80;76.28
49827;BME280;35715;51.570;6.036;2023-04-21T08:30:39;101252.78;;;13.78;73.99
49827;BME280;35715;51.570;6.036;2023-04-21T08:33:04;101255.38;;;13.78;76.27
49827;BME280;35715;51.570;6.036;2023-04-21T08:35:31;101255.84;;;14.44;74.60
49827;BME280;35715;51.570;6.036;2023-04-21T08:37:59;101255.94;;;14.61;73.53
49827;BME280;35715;51.570;6.036;2023-04-21T08:40:26;101250.38;;;14.84;72.13
49827;BME280;35715;51.570;6.036;2023-04-21T08:42:56;101252.41;;;15.05;69.22
49827;BME280;35715;51.570;6.036;2023-04-21T08:45:22;101246.69;;;15.27;70.03
49827;BME280;35715;51.570;6.036;2023-04-21T08:47:51;101250.03;;;14.78;70.88
49827;BME280;35715;51.570;6.036;2023-04-21T08:50:16;101254.34;;;14.78;72.61
49827;BME280;35715;51.570;6.036;2023-04-21T08:52:43;101245.97;;;15.30;71.56
49827;BME280;35715;51.570;6.036;2023-04-21T08:55:08;101243.13;;;15.25;69.93
49827;BME280;35715;51.570;6.036;2023-04-21T08:57:33;101248.25;;;14.77;71.03
49827;BME280;35715;51.570;6.036;2023-04-21T08:59:59;101241.47;;;14.64;72.17
49827;BME280;35715;51.570;6.036;2023-04-21T09:02:24;101245.19;;;14.25;72.24
49827;BME280;35715;51.570;6.036;2023-04-21T09:04:50;101246.53;;;13.75;74.47
49827;BME280;35715;51.570;6.036;2023-04-21T09:07:35;101231.75;;;13.32;76.47
49827;BME280;35715;51.570;6.036;2023-04-21T09:10:00;101237.97;;;13.21;77.77
49827;BME280;35715;51.570;6.036;2023-04-21T09:12:26;101239.97;;;13.11;78.04
49827;BME280;35715;51.570;6.036;2023-04-21T09:14:51;101243.06;;;12.79;79.53
49827;BME280;35715;51.570;6.036;2023-04-21T09:17:17;101244.69;;;12.90;81.00
49827;BME280;35715;51.570;6.036;2023-04-21T09:19:43;101251.13;;;12.97;81.80
49827;BME280;35715;51.570;6.036;2023-04-21T09:22:08;101242.69;;;13.00;81.08
49827;BME280;35715;51.570;6.036;2023-04-21T09:24:33;101256.84;;;12.91;82.68
49827;BME280;35715;51.570;6.036;2023-04-21T09:26:58;101255.53;;;12.85;81.76
49827;BME280;35715;51.570;6.036;2023-04-21T09:29:28;101254.16;;;12.76;81.11
49827;BME280;35715;51.570;6.036;2023-04-21T09:31:54;101252.03;;;12.71;81.49
49827;BME280;35715;51.570;6.036;2023-04-21T09:34:23;101249.03;;;12.51;82.98
49827;BME280;35715;51.570;6.036;2023-04-21T09:36:59;101241.06;;;12.48;83.22
49827;BME280;35715;51.570;6.036;2023-04-21T09:39:25;101251.84;;;12.68;82.41
49827;BME280;35715;51.570;6.036;2023-04-21T09:41:50;101249.25;;;12.54;82.84
49827;BME280;35715;51.570;6.036;2023-04-21T09:44:15;101244.34;;;12.46;84.98
49827;BME280;35715;51.570;6.036;2023-04-21T09:46:43;101233.13;;;12.72;83.79
49827;BME280;35715;51.570;6.036;2023-04-21T09:51:41;101235.22;;;12.91;80.90
49827;BME280;35715;51.570;6.036;2023-04-21T09:54:10;101237.00;;;12.92;82.90
49827;BME280;35715;51.570;6.036;2023-04-21T09:56:37;101229.72;;;12.86;84.33
49827;BME280;35715;51.570;6.036;2023-04-21T09:59:05;101226.94;;;12.96;83.72
49827;BME280;35715;51.570;6.036;2023-04-21T10:01:31;101230.91;;;13.05;83.28
49827;BME280;35715;51.570;6.036;2023-04-21T10:03:59;101229.13;;;13.17;81.96
49827;BME280;35715;51.570;6.036;2023-04-21T10:06:24;101223.41;;;13.36;81.89
49827;BME280;35715;51.570;6.036;2023-04-21T10:08:50;101229.03;;;13.57;81.22
49827;BME280;35715;51.570;6.036;2023-04-21T10:11:16;101221.84;;;13.81;79.51
49827;BME280;35715;51.570;6.036;2023-04-21T10:13:42;101223.47;;;13.94;76.41
49827;BME280;35715;51.570;6.036;2023-04-21T10:16:08;101224.66;;;14.59;74.97
49827;BME280;35715;51.570;6.036;2023-04-21T10:18:37;101226.66;;;14.78;72.30
49827;BME280;35715;51.570;6.036;2023-04-21T10:21:05;101221.00;;;14.26;73.87
49827;BME280;35715;51.570;6.036;2023-04-21T10:23:32;101227.31;;;13.86;74.86
49827;BME280;35715;51.570;6.036;2023-04-21T10:26:04;101225.53;;;13.85;76.14
49827;BME280;35715;51.570;6.036;2023-04-21T10:28:40;101217.44;;;14.09;75.84
49827;BME280;35715;51.570;6.036;2023-04-21T10:31:15;101215.19;;;14.15;76.38
49827;BME280;35715;51.570;6.036;2023-04-21T10:33:41;101209.47;;;14.06;76.26
49827;BME280;35715;51.570;6.036;2023-04-21T10:36:06;101205.13;;;13.91;73.58
49827;BME280;35715;51.570;6.036;2023-04-21T10:38:53;101206.75;;;13.89;73.36
49827;BME280;35715;51.570;6.036;2023-04-21T10:43:51;101191.66;;;13.97;71.79
49827;BME280;35715;51.570;6.036;2023-04-21T10:49:08;101187.81;;;13.90;73.88
49827;BME280;35715;51.570;6.036;2023-04-21T10:54:20;101181.19;;;14.10;75.94
49827;BME280;35715;51.570;6.036;2023-04-21T10:56:45;101169.94;;;14.25;76.27
49827;BME280;35715;51.570;6.036;2023-04-21T10:59:13;101165.72;;;14.27;77.39
49827;BME280;35715;51.570;6.036;2023-04-21T11:01:39;101160.50;;;14.42;75.20
49827;BME280;35715;51.570;6.036;2023-04-21T11:04:06;101158.28;;;14.63;72.62
49827;BME280;35715;51.570;6.036;2023-04-21T11:06:37;101146.97;;;14.62;72.51
49827;BME280;35715;51.570;6.036;2023-04-21T11:09:08;101148.25;;;14.39;71.97
49827;BME280;35715;51.570;6.036;2023-04-21T11:11:34;101141.56;;;14.13;73.49
49827;BME280;35715;51.570;6.036;2023-04-21T11:14:00;101133.84;;;14.29;73.21
49827;BME280;35715;51.570;6.036;2023-04-21T11:16:26;101132.69;;;14.24;72.21
49827;BME280;35715;51.570;6.036;2023-04-21T11:18:55;101130.94;;;14.40;71.88
49827;BME280;35715;51.570;6.036;2023-04-21T11:21:20;101140.09;;;14.48;70.64
49827;BME280;35715;51.570;6.036;2023-04-21T11:23:47;101135.53;;;14.44;72.30
49827;BME280;35715;51.570;6.036;2023-04-21T11:26:12;101127.00;;;14.76;70.81
49827;BME280;35715;51.570;6.036;2023-04-21T11:28:47;101124.81;;;15.00;71.16
49827;BME280;35715;51.570;6.036;2023-04-21T11:31:13;101109.06;;;15.14;71.10
49827;BME280;35715;51.570;6.036;2023-04-21T11:33:38;101103.78;;;15.12;70.43
49827;BME280;35715;51.570;6.036;2023-04-21T11:36:07;101101.78;;;15.06;70.44
49827;BME280;35715;51.570;6.036;2023-04-21T11:41:24;101092.50;;;16.13;66.80
49827;BME280;35715;51.570;6.036;2023-04-21T11:43:50;101103.75;;;16.12;66.13
49827;BME280;35715;51.570;6.036;2023-04-21T11:46:22;101089.59;;;16.07;65.97
49827;BME280;35715;51.570;6.036;2023-04-21T11:49:02;101084.28;;;15.88;67.25
49827;BME280;35715;51.570;6.036;2023-04-21T11:51:34;101085.13;;;16.59;63.55
49827;BME280;35715;51.570;6.036;2023-04-21T11:53:59;101088.22;;;17.07;62.03
49827;BME280;35715;51.570;6.036;2023-04-21T11:56:25;101092.03;;;16.76;62.56
49827;BME280;35715;51.570;6.036;2023-04-21T12:01:45;101081.78;;;16.61;62.04
49827;BME280;35715;51.570;6.036;2023-04-21T12:04:14;101089.09;;;16.14;63.89
49827;BME280;35715;51.570;6.036;2023-04-21T12:06:43;101073.03;;;16.05;64.61
49827;BME280;35715;51.570;6.036;2023-04-21T12:09:26;101074.13;;;15.76;64.50
49827;BME280;35715;51.570;6.036;2023-04-21T12:11:52;101071.34;;;15.89;67.07
49827;BME280;35715;51.570;6.036;2023-04-21T12:14:18;101075.31;;;15.81;68.16
49827;BME280;35715;51.570;6.036;2023-04-21T12:16:46;101070.13;;;16.73;65.93
49827;BME280;35715;51.570;6.036;2023-04-21T12:21:41;101053.13;;;16.43;65.98
49827;BME280;35715;51.570;6.036;2023-04-21T12:24:07;101054.34;;;15.96;67.64
49827;BME280;35715;51.570;6.036;2023-04-21T12:26:32;101037.69;;;15.58;66.65
49827;BME280;35715;51.570;6.036;2023-04-21T12:29:01;101052.34;;;15.39;69.11
49827;BME280;35715;51.570;6.036;2023-04-21T12:31:27;101037.31;;;16.03;65.07
49827;BME280;35715;51.570;6.036;2023-04-21T12:33:52;101039.84;;;16.75;65.39
49827;BME280;35715;51.570;6.036;2023-04-21T12:36:17;101037.81;;;17.07;64.08
49827;BME280;35715;51.570;6.036;2023-04-21T12:38:42;101028.94;;;17.23;64.41
49827;BME280;35715;51.570;6.036;2023-04-21T12:41:08;101046.31;;;17.22;64.45
49827;BME280;35715;51.570;6.036;2023-04-21T12:43:33;101043.38;;;17.14;65.35
49827;BME280;35715;51.570;6.036;2023-04-21T12:45:58;101038.69;;;16.88;65.43
49827;BME280;35715;51.570;6.036;2023-04-21T12:48:32;101041.19;;;16.86;65.54
49827;BME280;35715;51.570;6.036;2023-04-21T12:50:58;101030.84;;;17.27;65.90
49827;BME280;35715;51.570;6.036;2023-04-21T12:53:24;101013.13;;;17.39;63.76
49827;BME280;35715;51.570;6.036;2023-04-21T12:55:49;101008.13;;;17.65;64.10
49827;BME280;35715;51.570;6.036;2023-04-21T12:58:27;101018.97;;;17.54;65.13
49827;BME280;35715;51.570;6.036;2023-04-21T13:00:53;101003.72;;;17.43;61.34
49827;BME280;35715;51.570;6.036;2023-04-21T13:03:19;100998.81;;;17.29;62.25
49827;BME280;35715;51.570;6.036;2023-04-21T13:05:44;101007.59;;;17.31;62.02
49827;BME280;35715;51.570;6.036;2023-04-21T13:08:13;101009.94;;;17.06;60.89
49827;BME280;35715;51.570;6.036;2023-04-21T13:10:39;101010.09;;;16.89;61.65
49827;BME280;35715;51.570;6.036;2023-04-21T13:13:04;101009.22;;;16.89;62.52
49827;BME280;35715;51.570;6.036;2023-04-21T13:15:29;101004.94;;;16.91;63.34
49827;BME280;35715;51.570;6.036;2023-04-21T13:17:59;100998.81;;;16.71;62.78
49827;BME280;35715;51.570;6.036;2023-04-21T13:20:24;100996.13;;;16.49;63.69
49827;BME280;35715;51.570;6.036;2023-04-21T13:22:50;100996.19;;;16.51;64.87